createdAt,value
2023-05-06T00:02:36.008Z,99.90
2023-05-06T00:06:39.552Z,99.90
2023-05-06T00:10:44.262Z,99.90
2023-05-06T00:14:48.854Z,99.90
2023-05-06T00:18:52.163Z,99.90
2023-05-06T00:22:55.491Z,99.90
2023-05-06T00:26:58.804Z,99.90
2023-05-06T00:31:03.386Z,99.90
2023-05-06T00:35:09.414Z,99.90
2023-05-06T00:39:13.128Z,99.90
2023-05-06T00:43:16.867Z,99.90
2023-05-06T00:47:24.406Z,99.90
2023-05-06T00:51:28.277Z,99.90
2023-05-06T00:55:32.848Z,99.90
2023-05-06T00:59:36.572Z,99.90
2023-05-06T01:03:42.641Z,99.90
2023-05-06T01:07:51.746Z,99.90
2023-05-06T01:12:01.120Z,99.90
2023-05-06T01:16:08.678Z,99.90
2023-05-06T01:20:15.699Z,99.90
2023-05-06T01:24:20.547Z,99.90
2023-05-06T01:28:23.871Z,99.90
2023-05-06T01:32:48.025Z,99.90
2023-05-06T01:36:59.878Z,99.90
2023-05-06T01:41:05.867Z,99.90
2023-05-06T01:45:11.175Z,99.90
2023-05-06T01:49:17.188Z,99.90
2023-05-06T01:53:20.629Z,99.90
2023-05-06T01:57:25.479Z,99.90
2023-05-06T02:01:29.264Z,99.90
2023-05-06T02:05:32.552Z,99.90
2023-05-06T02:09:35.878Z,99.90
2023-05-06T02:13:41.702Z,99.90
2023-05-06T02:17:44.924Z,99.90
2023-05-06T02:21:48.230Z,99.90
2023-05-06T02:25:51.915Z,99.90
2023-05-06T02:29:57.349Z,99.90
2023-05-06T02:34:01.156Z,99.90
2023-05-06T02:38:04.613Z,99.90
2023-05-06T02:42:08.359Z,99.90
2023-05-06T02:46:13.885Z,99.90
2023-05-06T02:50:17.515Z,99.90
2023-05-06T02:54:21.133Z,99.90
2023-05-06T02:58:24.646Z,99.90
2023-05-06T03:02:29.587Z,99.90
2023-05-06T03:06:33.702Z,99.90
2023-05-06T03:10:37.702Z,99.90
2023-05-06T03:14:41.428Z,99.90
2023-05-06T03:18:46.110Z,99.90
2023-05-06T03:22:50.178Z,99.90
2023-05-06T03:26:54.611Z,99.90
2023-05-06T03:30:58.027Z,99.90
2023-05-06T03:35:08.627Z,99.90
2023-05-06T03:39:12.325Z,99.90
2023-05-06T03:43:15.780Z,99.90
2023-05-06T03:47:19.160Z,99.90
2023-05-06T03:51:26.013Z,99.90
2023-05-06T03:55:29.593Z,99.90
2023-05-06T03:59:32.766Z,99.90
2023-05-06T04:03:36.246Z,99.90
2023-05-06T04:07:41.101Z,99.90
2023-05-06T04:11:44.768Z,99.90
2023-05-06T04:15:48.058Z,99.90
2023-05-06T04:19:53.882Z,99.90
2023-05-06T04:23:59.357Z,99.90
2023-05-06T04:28:03.308Z,99.90
2023-05-06T04:32:07.933Z,99.90
2023-05-06T04:36:11.882Z,99.90
2023-05-06T04:40:20.473Z,99.90
2023-05-06T04:44:24.706Z,99.90
2023-05-06T04:48:28.602Z,99.90
2023-05-06T04:52:32.202Z,99.90
2023-05-06T04:56:36.973Z,99.90
2023-05-06T05:00:40.657Z,99.90
2023-05-06T05:04:43.870Z,99.90
2023-05-06T05:08:47.486Z,99.90
2023-05-06T05:12:52.200Z,99.90
2023-05-06T05:16:56.074Z,99.90
2023-05-06T05:21:00.792Z,99.90
2023-05-06T05:25:07.491Z,99.90
2023-05-06T05:29:13.069Z,99.90
2023-05-06T05:33:16.660Z,99.90
2023-05-06T05:37:20.261Z,99.90
2023-05-06T05:41:23.435Z,99.90
2023-05-06T05:45:29.213Z,99.90
2023-05-06T05:49:32.703Z,99.90
2023-05-06T05:53:35.990Z,99.90
2023-05-06T05:57:39.100Z,99.90
2023-05-06T06:01:44.971Z,99.90
2023-05-06T06:05:49.535Z,99.90
2023-05-06T06:09:52.724Z,99.90
2023-05-06T06:14:04.076Z,99.90
2023-05-06T06:18:09.058Z,99.90
2023-05-06T06:22:12.339Z,99.90
2023-05-06T06:26:15.536Z,99.90
2023-05-06T06:30:18.816Z,99.90
2023-05-06T06:34:23.334Z,99.90
2023-05-06T06:38:26.679Z,99.90
2023-05-06T06:42:29.777Z,99.90
2023-05-06T06:46:33.105Z,99.90
2023-05-06T06:50:37.605Z,99.90
2023-05-06T06:54:40.811Z,99.90
2023-05-06T06:58:44.051Z,99.90
2023-05-06T07:02:48.684Z,99.90
2023-05-06T07:06:53.223Z,99.90
2023-05-06T07:10:56.657Z,99.50
2023-05-06T07:14:59.842Z,99.10
2023-05-06T07:19:02.943Z,99.10
2023-05-06T07:23:07.630Z,98.70
2023-05-06T07:27:11.750Z,97.90
2023-05-06T07:31:16.178Z,96.90
2023-05-06T07:35:19.498Z,96.60
2023-05-06T07:39:24.008Z,96.10
2023-05-06T07:43:27.311Z,96.40
2023-05-06T07:47:32.382Z,96.40
2023-05-06T07:51:36.071Z,96.40
2023-05-06T07:55:40.572Z,95.80
2023-05-06T07:59:44.002Z,96.20
2023-05-06T08:03:47.305Z,96.70
2023-05-06T08:07:51.597Z,97.40
2023-05-06T08:11:56.439Z,97.40
2023-05-06T08:15:59.786Z,95.30
2023-05-06T08:20:02.997Z,94.90
2023-05-06T08:24:06.439Z,94.90
2023-05-06T08:28:10.993Z,93.20
2023-05-06T08:32:14.105Z,90.30
2023-05-06T08:36:17.376Z,87.50
2023-05-06T08:40:24.241Z,85.40
2023-05-06T08:44:28.966Z,82.00
2023-05-06T08:48:32.079Z,81.60
2023-05-06T08:52:37.988Z,78.40
2023-05-06T08:56:46.020Z,75.70
2023-05-06T09:00:50.622Z,74.80
2023-05-06T09:04:55.280Z,77.50
2023-05-06T09:08:58.400Z,76.00
2023-05-06T09:13:01.552Z,76.40
2023-05-06T09:17:06.973Z,77.00
2023-05-06T09:21:10.157Z,76.40
2023-05-06T09:25:15.307Z,75.30
2023-05-06T09:29:18.494Z,77.70
2023-05-06T09:33:23.426Z,77.50
2023-05-06T09:37:27.406Z,73.10
2023-05-06T09:41:32.234Z,72.50
2023-05-06T09:45:35.473Z,74.80
2023-05-06T09:49:41.590Z,75.30
2023-05-06T09:53:46.129Z,74.30
2023-05-06T09:57:50.146Z,74.60
2023-05-06T10:01:55.862Z,73.50
2023-05-06T10:06:02.385Z,74.10
2023-05-06T10:10:07.842Z,73.70
2023-05-06T10:14:11.823Z,69.70
2023-05-06T10:18:17.746Z,68.40
2023-05-06T10:22:34.394Z,73.60
2023-05-06T10:26:39.253Z,71.00
2023-05-06T10:30:44.290Z,69.80
2023-05-06T10:34:55.196Z,71.60
2023-05-06T10:39:03.443Z,70.40
2023-05-06T10:43:22.015Z,71.30
2023-05-06T10:47:25.544Z,69.00
2023-05-06T10:51:29.478Z,68.20
2023-05-06T10:55:37.926Z,65.40
2023-05-06T10:59:48.035Z,65.30
2023-05-06T11:03:53.098Z,64.60
2023-05-06T11:08:10.235Z,65.10
2023-05-06T11:12:15.077Z,66.00
2023-05-06T11:16:51.213Z,63.60
2023-05-06T11:21:37.115Z,69.80
2023-05-06T11:25:41.885Z,70.60
2023-05-06T11:29:47.721Z,72.60
2023-05-06T11:33:52.701Z,72.60
2023-05-06T11:38:02.899Z,72.10
2023-05-06T11:42:07.314Z,68.10
2023-05-06T11:46:11.945Z,68.70
2023-05-06T11:50:15.152Z,69.00
2023-05-06T11:54:20.534Z,68.20
2023-05-06T11:58:26.761Z,69.40
2023-05-06T12:02:31.505Z,69.80
2023-05-06T12:06:36.804Z,73.60
2023-05-06T12:10:41.001Z,73.20
2023-05-06T12:14:45.863Z,75.80
2023-05-06T12:18:50.698Z,78.10
2023-05-06T12:23:07.260Z,75.10
2023-05-06T12:27:10.472Z,70.20
2023-05-06T12:31:20.914Z,68.40
2023-05-06T12:35:32.082Z,68.10
2023-05-06T12:39:36.079Z,70.90
2023-05-06T12:43:39.470Z,69.80
2023-05-06T12:47:54.158Z,70.00
2023-05-06T12:52:12.019Z,70.10
2023-05-06T12:56:15.299Z,68.90
2023-05-06T13:00:18.964Z,64.10
2023-05-06T13:04:23.134Z,62.80
2023-05-06T13:08:27.748Z,61.70
2023-05-06T13:12:30.968Z,60.20
2023-05-06T13:16:35.393Z,60.40
2023-05-06T13:20:38.645Z,63.30
2023-05-06T13:24:43.164Z,63.60
2023-05-06T13:28:46.470Z,66.40
2023-05-06T13:32:49.645Z,62.50
2023-05-06T13:36:54.549Z,60.20
2023-05-06T13:40:59.073Z,59.10
2023-05-06T13:45:02.190Z,59.20
2023-05-06T13:49:05.508Z,55.30
2023-05-06T13:53:08.832Z,57.50
2023-05-06T13:57:13.340Z,57.00
2023-05-06T14:01:16.534Z,62.70
2023-05-06T14:05:20.065Z,63.90
2023-05-06T14:09:23.341Z,62.30
2023-05-06T14:13:31.761Z,62.50
2023-05-06T14:17:35.271Z,60.90
2023-05-06T14:21:38.515Z,64.00
2023-05-06T14:25:41.652Z,63.80
2023-05-06T14:29:46.312Z,63.50
2023-05-06T14:33:49.495Z,59.60
2023-05-06T14:37:52.837Z,60.50
2023-05-06T14:41:56.081Z,65.50
2023-05-06T14:46:01.101Z,70.10
2023-05-06T14:50:04.658Z,68.10
2023-05-06T14:54:07.769Z,64.40
2023-05-06T14:58:11.031Z,64.60
2023-05-06T15:02:15.682Z,65.90
2023-05-06T15:06:18.842Z,64.80
2023-05-06T15:10:22.539Z,65.70
2023-05-06T15:14:25.972Z,65.90
2023-05-06T15:18:31.031Z,66.70
2023-05-06T15:22:34.240Z,67.00
2023-05-06T15:26:37.503Z,70.80
2023-05-06T15:30:40.671Z,71.90
2023-05-06T15:34:45.499Z,75.40
2023-05-06T15:39:00.528Z,80.70
2023-05-06T15:43:06.035Z,83.90
2023-05-06T15:47:09.391Z,86.50
2023-05-06T15:51:13.960Z,90.00
2023-05-06T15:55:17.284Z,90.60
2023-05-06T15:59:20.528Z,90.60
2023-05-06T16:03:24.032Z,90.30
2023-05-06T16:07:29.887Z,90.70
2023-05-06T16:11:33.253Z,90.40
2023-05-06T16:15:36.608Z,91.20
2023-05-06T16:19:39.727Z,92.10
2023-05-06T16:23:44.400Z,93.40
2023-05-06T16:27:47.530Z,93.80
2023-05-06T16:31:51.182Z,94.80
2023-05-06T16:35:54.964Z,95.10
2023-05-06T16:40:00.329Z,97.80
2023-05-06T16:44:03.490Z,99.90
2023-05-06T16:48:07.292Z,99.90
2023-05-06T16:52:10.617Z,99.90
2023-05-06T16:56:16.116Z,99.90
2023-05-06T17:00:21.257Z,99.90
2023-05-06T17:04:26.264Z,99.90
2023-05-06T17:08:35.692Z,99.90
2023-05-06T17:12:42.289Z,99.90
2023-05-06T17:16:46.819Z,99.90
2023-05-06T17:20:56.038Z,99.90
2023-05-06T17:25:00.431Z,99.90
2023-05-06T17:29:06.775Z,99.90
2023-05-06T17:33:11.565Z,99.90
2023-05-06T17:37:15.381Z,99.90
2023-05-06T17:41:19.273Z,99.90
2023-05-06T17:45:25.829Z,99.90
2023-05-06T17:49:30.438Z,99.90
2023-05-06T17:53:42.783Z,99.90
2023-05-06T17:58:07.141Z,99.90
2023-05-06T18:02:27.256Z,99.90
2023-05-06T18:06:36.648Z,99.90
2023-05-06T18:10:42.574Z,99.90
2023-05-06T18:14:50.111Z,99.90
2023-05-06T18:18:57.900Z,99.90
2023-05-06T18:23:02.846Z,99.90
2023-05-06T18:27:08.370Z,99.90
2023-05-06T18:31:14.248Z,99.90
2023-05-06T18:35:26.828Z,99.90
2023-05-06T18:39:38.094Z,99.90
2023-05-06T18:43:51.975Z,99.90
2023-05-06T18:47:58.167Z,99.90
2023-05-06T18:52:06.463Z,99.90
2023-05-06T18:56:12.348Z,99.90
2023-05-06T19:00:20.117Z,99.90
2023-05-06T19:04:30.664Z,99.90
2023-05-06T19:08:42.049Z,99.90
2023-05-06T19:12:52.858Z,99.90
2023-05-06T19:17:04.080Z,99.90
2023-05-06T19:21:22.763Z,99.90
2023-05-06T19:25:29.468Z,99.90
2023-05-06T19:29:35.577Z,99.90
2023-05-06T19:33:42.903Z,99.90
2023-05-06T19:37:49.844Z,99.90
2023-05-06T19:42:06.596Z,99.90
2023-05-06T19:46:10.823Z,99.90
2023-05-06T19:50:15.882Z,99.90
2023-05-06T19:54:20.500Z,99.90
2023-05-06T19:58:30.208Z,99.90
2023-05-06T20:02:34.236Z,99.90
2023-05-06T20:06:38.301Z,99.90
2023-05-06T20:10:43.650Z,99.90
2023-05-06T20:14:50.188Z,99.90
2023-05-06T20:18:55.182Z,99.90
2023-05-06T20:22:59.330Z,99.90
2023-05-06T20:27:03.292Z,99.90
2023-05-06T20:31:09.106Z,99.90
2023-05-06T20:35:13.568Z,99.90
2023-05-06T20:39:17.365Z,99.90
2023-05-06T20:43:21.982Z,99.90
2023-05-06T20:47:26.820Z,99.90
2023-05-06T20:51:30.286Z,99.90
2023-05-06T20:55:34.733Z,99.90
2023-05-06T20:59:38.487Z,99.90
2023-05-06T21:03:43.398Z,99.90
2023-05-06T21:07:47.092Z,99.90
2023-05-06T21:11:50.372Z,99.90
2023-05-06T21:15:53.628Z,99.90
2023-05-06T21:19:58.165Z,99.90
2023-05-06T21:24:01.540Z,99.90
2023-05-06T21:28:06.364Z,99.90
2023-05-06T21:32:09.981Z,99.90
2023-05-06T21:36:14.996Z,99.90
2023-05-06T21:40:18.347Z,99.90
2023-05-06T21:44:21.599Z,99.90
2023-05-06T21:48:24.717Z,99.90
2023-05-06T21:52:29.395Z,99.90
2023-05-06T21:56:32.768Z,99.90
2023-05-06T22:00:36.162Z,99.90
2023-05-06T22:04:39.285Z,99.90
2023-05-06T22:08:44.005Z,99.90
2023-05-06T22:12:47.142Z,99.90
2023-05-06T22:16:52.751Z,99.90
2023-05-06T22:20:57.971Z,99.90
2023-05-06T22:25:03.137Z,99.90
2023-05-06T22:29:06.723Z,99.90
2023-05-06T22:33:10.022Z,99.90
2023-05-06T22:37:14.053Z,99.90
2023-05-06T22:41:20.122Z,99.90
2023-05-06T22:45:23.248Z,99.90
2023-05-06T22:49:28.863Z,99.90
2023-05-06T22:53:32.281Z,99.90
2023-05-06T22:57:36.881Z,99.90
2023-05-06T23:01:40.194Z,99.90
2023-05-06T23:05:44.421Z,99.90
2023-05-06T23:09:47.603Z,99.90
2023-05-06T23:13:52.286Z,99.90
2023-05-06T23:17:55.734Z,99.90
2023-05-06T23:21:58.904Z,99.90
2023-05-06T23:26:03.200Z,99.90
2023-05-06T23:30:09.435Z,99.90
2023-05-06T23:34:12.688Z,99.90
2023-05-06T23:38:15.796Z,99.90
2023-05-06T23:42:19.229Z,99.90
2023-05-06T23:46:24.058Z,99.90
2023-05-06T23:50:27.349Z,99.90
2023-05-06T23:54:31.035Z,99.90
2023-05-06T23:58:34.146Z,99.90
